James William — WDH5573 — position and weather

sailwx.info

Track history (hours):
 
Tides and Currents Weather Stations Pressure Air Temp Water Temp Dewpoint Dewpoint Depression Visibility Wind Speed Wind Dir Waves Ship Positions

James William

Owner: Atlas Holdings, LLC, Norfolk, VA. More information available from US FCC via Universal Licensing System and Coast Guard Vessel Documentation Center.

Last reported at 2017-Oct-22 19:00 UTC. Time now 2017-Oct-22 19:05 UTC.
Position N 40°40' W 074°03'.

Length 26 m; draft 3 m.

Type: Tug. MMSI: 367198950.

Date/timePositionNaut miles runAvg speedWind from/ knotsBaromVisibWave heightAir tempDewpointWater temp
2017-Oct-22 19:00N 40°40' W 074°03'3 6.2
2017-Oct-22 18:30N 40°39' W 074°07'4 7.6
2017-Oct-22 18:00N 40°38' W 074°12'2 2.2
2017-Oct-22 17:00N 40°36' W 074°12'2 4.6
2017-Oct-22 16:30N 40°38' W 074°12'0 0.0
2017-Oct-22 16:01N 40°38' W 074°12'0 0.0
2017-Oct-22 15:30N 40°38' W 074°12'0 0.0
2017-Oct-22 14:30N 40°38' W 074°12'0 0.1
2017-Oct-22 14:00N 40°38' W 074°12'0 0.1
2017-Oct-22 13:30N 40°38' W 074°12'0 0.3
2017-Oct-22 13:00N 40°38' W 074°12'2 3.9
2017-Oct-22 12:30N 40°39' W 074°09'4 9.1
2017-Oct-22 12:00N 40°40' W 074°03'0 0.8
2017-Oct-22 11:30N 40°40' W 074°03'1 2.4
2017-Oct-22 11:00N 40°40' W 074°02'2 3.1
2017-Oct-22 10:30N 40°40' W 074°00'2 4.9
2017-Oct-22 10:00N 40°40' W 074°03'1 1.4
2017-Oct-22 09:31N 40°40' W 074°03'4 7.3
2017-Oct-22 09:00N 40°42' W 073°60'4 7.9
2017-Oct-22 08:30N 40°46' W 073°57'4 7.8
2017-Oct-22 07:59N 40°48' W 073°53'4 7.4
2017-Oct-22 07:29N 40°48' W 073°48'3 6.2
2017-Oct-22 07:00N 40°51' W 073°46'3 0.7
2017-Oct-22 02:48N 40°48' W 073°47'1 2.9
2017-Oct-22 02:24N 40°48' W 073°49'0 0.7
2017-Oct-22 02:00N 40°48' W 073°49'3 6.5
2017-Oct-22 01:27N 40°48' W 073°54'4 8.5
2017-Oct-22 01:01N 40°46' W 073°57'3 6.8
2017-Oct-22 00:30N 40°42' W 073°59'3 6.1
2017-Oct-22 00:00N 40°40' W 074°02'1 1.9
2017-Oct-21 23:31N 40°40' W 074°03'1 2.9
2017-Oct-21 23:01N 40°40' W 074°01'0 0.7
2017-Oct-21 22:31N 40°40' W 074°02'1 2.7
2017-Oct-21 21:59N 40°40' W 074°03'0 0.0
2017-Oct-21 21:30N 40°40' W 074°03'0 0.0
2017-Oct-21 21:00N 40°40' W 074°03'0 0.2
2017-Oct-21 20:30N 40°40' W 074°03'0 0.9
2017-Oct-21 20:00N 40°40' W 074°03'3 6.4
2017-Oct-21 19:30N 40°42' W 073°60'3 6.8
2017-Oct-21 19:00N 40°45' W 073°58'4 8.2
2017-Oct-21 18:31N 40°48' W 073°54'3 6.4
2017-Oct-21 18:00N 40°48' W 073°50'0 0.6
2017-Oct-21 17:30N 40°48' W 073°49'0 0.5
2017-Oct-21 17:00N 40°48' W 073°49'1 1.9
2017-Oct-21 16:30N 40°48' W 073°50'2 3.2
2017-Oct-21 16:00N 40°48' W 073°52'2 3.2
2017-Oct-21 15:29N 40°48' W 073°55'2 4.4
2017-Oct-21 15:00N 40°46' W 073°57'4 3.7
2017-Oct-21 13:59N 40°43' W 073°58'3 5.4
2017-Oct-21 13:30N 40°41' W 074°01'2 3.6
2017-Oct-21 13:00N 40°40' W 074°03'0 0.4
2017-Oct-21 12:30N 40°41' W 074°03'0 0.1
2017-Oct-21 12:00N 40°41' W 074°03'0 0.2
2017-Oct-21 11:30N 40°40' W 074°03'0 0.1
2017-Oct-21 11:00N 40°40' W 074°03'0 0.1
2017-Oct-21 10:30N 40°40' W 074°03'0 0.0
2017-Oct-21 10:00N 40°40' W 074°03'0 0.7
2017-Oct-21 09:30N 40°40' W 074°03'2 4.4
2017-Oct-21 09:00N 40°41' W 074°00'3 5.5
2017-Oct-21 08:30N 40°40' W 074°03'0 0.2
2017-Oct-21 08:00N 40°40' W 074°03'1 1.0
2017-Oct-21 07:30N 40°40' W 074°03'1 1.1
2017-Oct-21 07:00N 40°40' W 074°03'0 0.1
2017-Oct-21 06:30N 40°40' W 074°03'2 3.5
2017-Oct-21 06:00N 40°41' W 074°01'1 1.5
2017-Oct-21 05:30N 40°41' W 074°01'2 4.3
2017-Oct-21 05:01N 40°40' W 074°03'1 1.5
2017-Oct-21 04:30N 40°41' W 074°02'3 5.6
2017-Oct-21 04:00N 40°42' W 073°59'1 2.1
2017-Oct-21 03:30N 40°43' W 073°58'2 4.3
2017-Oct-21 03:00N 40°42' W 074°00'2 4.8
2017-Oct-21 02:30N 40°40' W 074°03'0 0.8
2017-Oct-21 02:00N 40°41' W 074°03'0 0.1
2017-Oct-21 01:30N 40°40' W 074°03'1 2.7
2017-Oct-21 01:00N 40°39' W 074°04'3 7.0
2017-Oct-21 00:30N 40°39' W 074°09'3 6.2
2017-Oct-21 00:00N 40°37' W 074°12'1 0.8
2017-Oct-20 23:10N 40°36' W 074°12'0 0.2
2017-Oct-20 22:47N 40°36' W 074°12'0 1.6
2017-Oct-20 22:30N 40°37' W 074°12'2 4.7
2017-Oct-20 22:00N 40°39' W 074°11'3 5.9
2017-Oct-20 21:30N 40°39' W 074°07'3 5.5
2017-Oct-20 21:00N 40°40' W 074°04'1 1.7
2017-Oct-20 20:31N 40°40' W 074°03'0 0.9
2017-Oct-20 20:00N 40°40' W 074°03'0 0.5
2017-Oct-20 19:30N 40°40' W 074°03'0 0.4
2017-Oct-20 19:00N 40°40' W 074°03'0 0.0
2017-Oct-20 18:30N 40°40' W 074°03'1 1.0
2017-Oct-20 18:00N 40°41' W 074°03'3 6.4
2017-Oct-20 17:30N 40°44' W 074°01'3 6.2
2017-Oct-20 17:00N 40°47' W 074°00'5 5.1
2017-Oct-20 15:59N 40°51' W 073°57'2 4.1
2017-Oct-20 15:30N 40°53' W 073°56'2 3.8
2017-Oct-20 15:00N 40°55' W 073°55'2 3.3
2017-Oct-20 14:30N 40°56' W 073°54'1 0.1
2017-Oct-20 06:16N 40°57' W 073°54'1 4.6
2017-Oct-20 05:58N 40°56' W 073°55'2 4.8
2017-Oct-20 05:28N 40°54' W 073°56'2 4.9
2017-Oct-20 04:59N 40°51' W 073°57'3 5.1
2017-Oct-20 04:30N 40°49' W 073°58'3 5.8
2017-Oct-20 04:00N 40°47' W 073°60'3 5.9
2017-Oct-20 03:30N 40°44' W 074°01'3 6.1
2017-Oct-20 03:00N 40°41' W 074°02'1 2.6
2017-Oct-20 02:30N 40°40' W 074°03'0 0.1
2017-Oct-20 02:00N 40°40' W 074°03'3 5.2
2017-Oct-20 01:30N 40°41' W 074°01'1 2.4
2017-Oct-20 01:00N 40°41' W 074°02'1 2.8
2017-Oct-20 00:30N 40°40' W 074°03'0 0.1
2017-Oct-20 00:00N 40°40' W 074°03'0 0.3
2017-Oct-19 23:30N 40°40' W 074°03'0 0.3
2017-Oct-19 23:00N 40°40' W 074°03'0 0.0
2017-Oct-19 22:30N 40°40' W 074°03'1 1.1
2017-Oct-19 22:00N 40°40' W 074°03'1 1.1
2017-Oct-19 21:30N 40°40' W 074°03'2 3.7
2017-Oct-19 21:00N 40°41' W 074°01'0 0.3
2017-Oct-19 20:30N 40°41' W 074°01'2 3.8
2017-Oct-19 20:00N 40°40' W 074°03'0 0.0
2017-Oct-19 19:30N 40°40' W 074°03'0 0.0
2017-Oct-19 19:00N 40°40' W 074°03'0 0.0
2017-Oct-19 18:30N 40°40' W 074°03'0 0.8
2017-Oct-19 18:00N 40°40' W 074°03'0 0.1
2017-Oct-19 17:31N 40°40' W 074°03'0 0.9
2017-Oct-19 17:00N 40°40' W 074°03'1 1.2
2017-Oct-19 16:30N 40°40' W 074°03'2 4.4
2017-Oct-19 16:00N 40°40' W 073°60'1 1.2
2017-Oct-19 15:30N 40°40' W 074°01'2 3.1
2017-Oct-19 15:01N 40°41' W 074°00'2 3.9
2017-Oct-19 14:30N 40°40' W 074°03'0 0.8
2017-Oct-19 14:00N 40°40' W 074°03'2 4.9
2017-Oct-19 13:31N 40°41' W 074°00'3 5.6
2017-Oct-19 13:00N 40°40' W 074°03'1 1.1
2017-Oct-19 12:30N 40°40' W 074°03'1 1.6
2017-Oct-19 12:00N 40°40' W 074°02'2 3.4
2017-Oct-19 11:30N 40°40' W 073°60'0 0.0
2017-Oct-19 11:00N 40°40' W 073°60'1 2.6
2017-Oct-19 10:30N 40°40' W 074°02'1 2.3
2017-Oct-19 10:00N 40°40' W 074°03'0 0.9
2017-Oct-19 09:30N 40°40' W 074°03'1 2.9
2017-Oct-19 09:00N 40°41' W 074°02'3 5.6
2017-Oct-19 08:30N 40°43' W 073°59'3 6.4
2017-Oct-19 08:00N 40°46' W 073°57'4 7.6
2017-Oct-19 07:30N 40°48' W 073°54'3 6.7
2017-Oct-19 07:00N 40°48' W 073°49'2 3.9
2017-Oct-19 06:30N 40°47' W 073°52'2 3.7
2017-Oct-19 05:57N 40°46' W 073°50'0 0.3
2017-Oct-19 05:29N 40°46' W 073°50'2 4.0
2017-Oct-19 05:00N 40°48' W 073°51'2 3.6
2017-Oct-19 04:29N 40°48' W 073°49'2 3.2
2017-Oct-19 03:59N 40°48' W 073°51'1 1.8
2017-Oct-19 03:22N 40°49' W 073°52'3 7.1
2017-Oct-19 03:01N 40°49' W 073°49'1 1.9
2017-Oct-19 02:30N 40°48' W 073°50'2 4.8
2017-Oct-19 01:59N 40°48' W 073°53'3 5.5
2017-Oct-19 01:29N 40°47' W 073°56'3 6.2
2017-Oct-19 01:01N 40°44' W 073°58'3 6.1
2017-Oct-19 00:30N 40°41' W 074°01'3 5.4
2017-Oct-19 00:00N 40°40' W 074°03'0 0.1
2017-Oct-18 23:30N 40°40' W 074°03'3 5.2
2017-Oct-18 23:00N 40°41' W 074°01'1 2.1
2017-Oct-18 22:30N 40°41' W 074°02'2 3.1
2017-Oct-18 22:00N 40°40' W 074°03'1 1.2
2017-Oct-18 21:30N 40°40' W 074°03'0 0.8
2017-Oct-18 21:00N 40°41' W 074°03'2 4.4
2017-Oct-18 20:30N 40°43' W 074°01'3 5.6
2017-Oct-18 20:00N 40°45' W 074°01'3 6.7
2017-Oct-18 19:30N 40°48' W 073°59'4 7.0
2017-Oct-18 18:59N 40°52' W 073°57'3 6.9
2017-Oct-18 18:30N 40°55' W 073°55'3 0.3
2017-Oct-18 09:02N 40°58' W 073°54'0 4.9
2017-Oct-18 08:58N 40°57' W 073°54'2 4.8
2017-Oct-18 08:30N 40°55' W 073°55'2 4.2
2017-Oct-18 08:00N 40°53' W 073°56'2 3.8
2017-Oct-18 07:30N 40°51' W 073°57'2 3.4
2017-Oct-18 07:00N 40°50' W 073°58'2 3.0
2017-Oct-18 06:29N 40°48' W 073°58'1 2.9
2017-Oct-18 06:00N 40°47' W 073°59'2 3.2
2017-Oct-18 05:30N 40°46' W 074°00'2 3.4
2017-Oct-18 05:00N 40°44' W 074°01'2 3.8
2017-Oct-18 04:30N 40°42' W 074°02'2 4.1
2017-Oct-18 04:00N 40°41' W 074°03'0 0.7
2017-Oct-18 03:30N 40°40' W 074°03'2 4.1
2017-Oct-18 03:00N 40°40' W 074°00'1 2.5
2017-Oct-18 02:30N 40°40' W 074°02'1 1.6
2017-Oct-18 02:00N 40°40' W 074°03'0 0.3
2017-Oct-18 01:30N 40°41' W 074°03'3 5.2
2017-Oct-18 01:00N 40°39' W 074°06'4 7.2
2017-Oct-18 00:29N 40°39' W 074°11'3 6.0
2017-Oct-18 00:00N 40°36' W 074°12'0 0.5
2017-Oct-17 23:30N 40°36' W 074°12'0 0.0
2017-Oct-17 22:51N 40°36' W 074°12'0 0.1
2017-Oct-17 22:14N 40°36' W 074°12'0 1.3
2017-Oct-17 21:59N 40°36' W 074°12'3 5.3
2017-Oct-17 21:30N 40°39' W 074°11'3 6.8
2017-Oct-17 21:00N 40°39' W 074°06'3 5.8
2017-Oct-17 20:30N 40°40' W 074°03'1 1.4
2017-Oct-17 20:00N 40°40' W 074°02'0 0.6
2017-Oct-17 19:30N 40°40' W 074°02'0 0.9
2017-Oct-17 19:00N 40°40' W 074°02'2 3.7
2017-Oct-17 18:30N 40°41' W 074°00'3 5.4
2017-Oct-17 18:00N 40°40' W 074°03'0 0.1
2017-Oct-17 17:30N 40°40' W 074°03'0 0.3
2017-Oct-17 17:00N 40°40' W 074°03'0 0.6
2017-Oct-17 16:30N 40°40' W 074°03'4 7.3
2017-Oct-17 16:00N 40°42' W 073°59'4 8.0
2017-Oct-17 15:30N 40°46' W 073°57'6 4.1
2017-Oct-17 13:59N 40°48' W 073°49'2 4.0
2017-Oct-17 13:29N 40°47' W 073°52'2 3.3
2017-Oct-17 12:55N 40°46' W 073°50'2 4.1
2017-Oct-17 12:30N 40°47' W 073°52'2 4.9
2017-Oct-17 12:00N 40°48' W 073°49'0 0.8
2017-Oct-17 11:30N 40°48' W 073°49'0 0.0
2017-Oct-17 11:00N 40°48' W 073°50'0 0.0
2017-Oct-17 10:29N 40°48' W 073°49'0 0.0
2017-Oct-17 10:00N 40°48' W 073°49'0 0.0
2017-Oct-17 09:30N 40°48' W 073°50'0 0.2
2017-Oct-17 08:58N 40°48' W 073°49'0 0.1
2017-Oct-17 08:30N 40°48' W 073°49'3 5.6
2017-Oct-17 08:00N 40°46' W 073°51'0 0.7
2017-Oct-17 07:25N 40°46' W 073°50'2 4.3
2017-Oct-17 07:00N 40°47' W 073°52'2 4.5
2017-Oct-17 06:30N 40°49' W 073°49'2 3.9
2017-Oct-17 06:00N 40°48' W 073°51'2 2.9
2017-Oct-17 05:19N 40°46' W 073°50'2 5.4
2017-Oct-17 04:59N 40°47' W 073°52'2 4.4
2017-Oct-17 04:30N 40°48' W 073°49'3 0.2
2017-Oct-16 13:48N 40°50' W 073°46'2 7.1
2017-Oct-16 13:28N 40°48' W 073°47'2 3.1
2017-Oct-16 12:57N 40°48' W 073°49'2 2.9
2017-Oct-16 12:11N 40°49' W 073°52'1 6.3
2017-Oct-16 11:59N 40°48' W 073°51'2 1.1
2017-Oct-16 10:18N 40°48' W 073°49'0 0.0
2017-Oct-16 09:10N 40°48' W 073°49'0 0.6
2017-Oct-16 08:53N 40°48' W 073°48'1 3.7
2017-Oct-16 08:30N 40°48' W 073°50'3 6.2
2017-Oct-16 07:59N 40°48' W 073°55'4 7.6
2017-Oct-16 07:30N 40°45' W 073°58'3 5.8
2017-Oct-16 07:00N 40°42' W 073°59'3 5.4
2017-Oct-16 06:30N 40°41' W 074°02'1 2.7
2017-Oct-16 06:00N 40°40' W 074°03'0 0.0
2017-Oct-16 05:30N 40°40' W 074°03'0 0.0
2017-Oct-16 05:00N 40°40' W 074°03'0 0.0
2017-Oct-16 04:30N 40°40' W 074°03'0 0.0
2017-Oct-16 04:00N 40°40' W 074°03'0 0.0
2017-Oct-16 03:30N 40°40' W 074°03'0 0.0
2017-Oct-16 03:00N 40°40' W 074°03'3 5.7
2017-Oct-16 02:31N 40°41' W 074°00'2 3.4
2017-Oct-16 02:00N 40°40' W 074°01'1 2.4
2017-Oct-16 01:30N 40°40' W 073°60'2 3.7
2017-Oct-16 01:00N 40°40' W 074°02'0 0.5
2017-Oct-16 00:30N 40°41' W 074°02'2 3.3
2017-Oct-16 00:01N 40°40' W 073°60'1 1.4
2017-Oct-15 23:30N 40°40' W 074°01'0 0.0
2017-Oct-15 23:00N 40°40' W 074°01'0 0.0
2017-Oct-15 22:30N 40°40' W 074°01'0 0.0
2017-Oct-15 22:00N 40°40' W 074°01'0 0.0
2017-Oct-15 21:30N 40°40' W 074°01'0 0.0
2017-Oct-15 21:00N 40°40' W 074°01'0 0.0
2017-Oct-15 20:30N 40°40' W 074°01'0 0.0
2017-Oct-15 20:00N 40°40' W 074°01'0 0.0
2017-Oct-15 19:30N 40°40' W 074°01'0 0.0
2017-Oct-15 19:00N 40°40' W 074°01'0 0.0
2017-Oct-15 18:30N 40°40' W 074°01'0 0.0
2017-Oct-15 18:00N 40°40' W 074°01'0 0.0
2017-Oct-15 17:30N 40°40' W 074°01'0 0.0
2017-Oct-15 17:00N 40°40' W 074°01'0 0.0
2017-Oct-15 16:30N 40°40' W 074°01'0 0.0
2017-Oct-15 16:00N 40°40' W 074°01'0 0.0
2017-Oct-15 15:30N 40°40' W 074°01'0 0.0
2017-Oct-15 15:00N 40°40' W 074°01'0 0.0
2017-Oct-15 14:00N 40°40' W 074°01'0 0.0
2017-Oct-15 13:30N 40°40' W 074°01'0 0.0
2017-Oct-15 13:00N 40°40' W 074°01'0 0.0
2017-Oct-15 12:30N 40°40' W 074°01'0 0.0
2017-Oct-15 12:00N 40°40' W 074°01'0 0.0
2017-Oct-15 11:30N 40°40' W 074°01'0 0.0
2017-Oct-15 11:00N 40°40' W 074°01'0 0.0
2017-Oct-15 10:30N 40°40' W 074°01'0 0.0
2017-Oct-15 10:00N 40°40' W 074°01'0 0.0
2017-Oct-15 09:30N 40°40' W 074°01'0 0.0
2017-Oct-15 09:00N 40°40' W 074°01'0 0.0
2017-Oct-15 08:30N 40°40' W 074°01'0 0.0
2017-Oct-15 08:00N 40°40' W 074°01'0 0.0
2017-Oct-15 07:30N 40°40' W 074°01'0 0.0
2017-Oct-15 07:00N 40°40' W 074°01'0 0.0
2017-Oct-15 06:30N 40°40' W 074°01'0 0.0
2017-Oct-15 06:00N 40°40' W 074°01'0 0.0
2017-Oct-15 05:30N 40°40' W 074°01'0 0.0
2017-Oct-15 05:00N 40°40' W 074°01'0 0.0
2017-Oct-15 04:30N 40°40' W 074°01'0 0.0
2017-Oct-15 04:00N 40°40' W 074°01'0 0.0
2017-Oct-15 03:30N 40°40' W 074°01'0 0.0
2017-Oct-15 03:00N 40°40' W 074°01'0 0.0
2017-Oct-15 02:30N 40°40' W 074°01'0 0.0
2017-Oct-15 02:00N 40°40' W 074°01'0 0.0
2017-Oct-15 01:30N 40°40' W 074°01'0 0.0
2017-Oct-15 01:00N 40°40' W 074°01'0 0.0
2017-Oct-15 00:30N 40°40' W 074°01'0 0.0
2017-Oct-15 00:00N 40°40' W 074°01'0 0.0
2017-Oct-14 23:30N 40°40' W 074°01'0 0.0
2017-Oct-14 23:00N 40°40' W 074°01'0 0.1
2017-Oct-14 22:30N 40°40' W 074°01'0 0.0
2017-Oct-14 22:00N 40°40' W 074°01'0 0.0
2017-Oct-14 21:30N 40°40' W 074°01'0 0.0
2017-Oct-14 21:00N 40°40' W 074°01'0 0.0
2017-Oct-14 20:30N 40°40' W 074°01'0 0.0
2017-Oct-14 20:00N 40°40' W 074°01'0 0.0
2017-Oct-14 19:30N 40°40' W 074°01'0 0.0
2017-Oct-14 19:00N 40°40' W 074°01'0 0.0
2017-Oct-14 18:30N 40°40' W 074°01'2 3.8
2017-Oct-14 18:00N 40°40' W 074°03'2 4.0
2017-Oct-14 17:30N 40°41' W 074°01'0 0.7
2017-Oct-14 17:00N 40°41' W 074°01'1 1.6
2017-Oct-14 16:30N 40°40' W 074°01'4 7.1
2017-Oct-14 16:00N 40°44' W 074°01'4 8.8
2017-Oct-14 15:30N 40°48' W 073°59'5 9.1
2017-Oct-14 15:00N 40°52' W 073°56'5 8.4
2017-Oct-14 14:28N 40°56' W 073°55'2 0.3
2017-Oct-14 08:41N 40°55' W 073°55'1 5.2
2017-Oct-14 08:28N 40°54' W 073°56'3 5.3
2017-Oct-14 08:00N 40°51' W 073°57'3 5.2
2017-Oct-14 07:30N 40°49' W 073°58'2 4.8
2017-Oct-14 07:00N 40°47' W 073°60'2 4.3
2017-Oct-14 06:30N 40°45' W 074°01'2 3.8
2017-Oct-14 06:00N 40°43' W 074°01'2 3.4
2017-Oct-14 05:30N 40°42' W 074°02'2 3.0
2017-Oct-14 05:01N 40°40' W 074°03'0 0.9
2017-Oct-14 04:30N 40°40' W 074°03'0 0.0
2017-Oct-14 04:00N 40°40' W 074°03'0 0.0
2017-Oct-14 03:30N 40°40' W 074°03'0 0.0
2017-Oct-14 03:00N 40°40' W 074°03'0 0.0
2017-Oct-14 02:30N 40°40' W 074°03'0 0.1
2017-Oct-14 02:00N 40°40' W 074°03'0 0.0
2017-Oct-14 01:30N 40°40' W 074°03'0 0.0
2017-Oct-14 01:00N 40°40' W 074°03'0 0.0
2017-Oct-14 00:30N 40°40' W 074°03'0 0.9
2017-Oct-14 00:00N 40°40' W 074°03'0 0.4
2017-Oct-13 23:30N 40°40' W 074°03'0 0.4
2017-Oct-13 23:00N 40°40' W 074°03'2 3.6
2017-Oct-13 22:30N 40°41' W 074°01'3 6.9
2017-Oct-13 22:00N 40°43' W 073°58'3 6.5
2017-Oct-13 21:30N 40°46' W 073°57'2 4.1
2017-Oct-13 21:00N 40°48' W 073°55'2 4.4
2017-Oct-13 20:30N 40°48' W 073°52'3 3.3
2017-Oct-13 19:34N 40°48' W 073°48'0 4.5
2017-Oct-13 19:30N 40°48' W 073°47'2 0.2
2017-Oct-13 10:22N 40°50' W 073°47'2 3.9
2017-Oct-13 09:53N 40°48' W 073°47'2 3.7
2017-Oct-13 09:27N 40°48' W 073°49'0 0.6
2017-Oct-13 09:00N 40°48' W 073°49'0 0.2
2017-Oct-13 08:24N 40°49' W 073°49'1 3.3
2017-Oct-13 08:00N 40°48' W 073°51'3 5.4
2017-Oct-13 07:30N 40°48' W 073°54'4 7.3
2017-Oct-13 07:00N 40°45' W 073°57'3 6.6
2017-Oct-13 06:30N 40°42' W 073°59'3 6.2
2017-Oct-13 06:00N 40°40' W 074°02'1 2.2
2017-Oct-13 05:30N 40°40' W 074°03'0 0.0
2017-Oct-13 05:00N 40°40' W 074°03'0 0.1
2017-Oct-13 04:30N 40°40' W 074°03'1 1.1
2017-Oct-13 04:00N 40°40' W 074°03'2 4.6
2017-Oct-13 03:30N 40°40' W 074°00'0 0.5
2017-Oct-13 02:59N 40°40' W 073°60'1 2.1
2017-Oct-13 02:30N 40°40' W 074°01'2 3.2
2017-Oct-13 01:59N 40°41' W 074°00'2 3.5
2017-Oct-13 01:30N 40°40' W 074°02'1 2.1
2017-Oct-13 01:00N 40°40' W 074°03'3 4.6
2017-Oct-13 00:23N 40°41' W 074°00'2 5.6
2017-Oct-13 00:00N 40°40' W 074°03'1 1.0
2017-Oct-12 23:30N 40°40' W 074°03'1 2.0
2017-Oct-12 23:00N 40°40' W 074°04'4 8.6
2017-Oct-12 22:30N 40°39' W 074°10'3 6.2
2017-Oct-12 21:59N 40°36' W 074°12'0 0.5
2017-Oct-12 21:29N 40°36' W 074°12'0 0.1
2017-Oct-12 21:00N 40°36' W 074°12'1 1.8
2017-Oct-12 20:30N 40°37' W 074°12'2 4.2
2017-Oct-12 20:01N 40°39' W 074°11'2 4.6
2017-Oct-12 19:30N 40°39' W 074°08'2 5.0
2017-Oct-12 19:00N 40°39' W 074°04'  
Track history (hours):
 
Tides and Currents Weather Stations Pressure Air Temp Water Temp Dewpoint Dewpoint Depression Visibility Wind Speed Wind Dir Waves Ship Positions

James William

Owner: Atlas Holdings, LLC, Norfolk, VA. More information available from US FCC via Universal Licensing System and Coast Guard Vessel Documentation Center.

Last reported at 2017-Oct-22 19:00 UTC. Time now 2017-Oct-22 19:05 UTC.
Position N 40°40' W 074°03'.

Length 26 m; draft 3 m.

Type: Tug. MMSI: 367198950.

Date/timePositionNaut miles runAvg speedWind from/ knotsBaromVisibWave heightAir tempDewpointWater temp
2017-Oct-22 19:00N 40°40' W 074°03'3 6.2
2017-Oct-22 18:30N 40°39' W 074°07'4 7.6
2017-Oct-22 18:00N 40°38' W 074°12'2 2.2
2017-Oct-22 17:00N 40°36' W 074°12'2 4.6
2017-Oct-22 16:30N 40°38' W 074°12'0 0.0
2017-Oct-22 16:01N 40°38' W 074°12'0 0.0
2017-Oct-22 15:30N 40°38' W 074°12'0 0.0
2017-Oct-22 14:30N 40°38' W 074°12'0 0.1
2017-Oct-22 14:00N 40°38' W 074°12'0 0.1
2017-Oct-22 13:30N 40°38' W 074°12'0 0.3
2017-Oct-22 13:00N 40°38' W 074°12'2 3.9
2017-Oct-22 12:30N 40°39' W 074°09'4 9.1
2017-Oct-22 12:00N 40°40' W 074°03'0 0.8
2017-Oct-22 11:30N 40°40' W 074°03'1 2.4
2017-Oct-22 11:00N 40°40' W 074°02'2 3.1
2017-Oct-22 10:30N 40°40' W 074°00'2 4.9
2017-Oct-22 10:00N 40°40' W 074°03'1 1.4
2017-Oct-22 09:31N 40°40' W 074°03'4 7.3
2017-Oct-22 09:00N 40°42' W 073°60'4 7.9
2017-Oct-22 08:30N 40°46' W 073°57'4 7.8
2017-Oct-22 07:59N 40°48' W 073°53'4 7.4
2017-Oct-22 07:29N 40°48' W 073°48'3 6.2
2017-Oct-22 07:00N 40°51' W 073°46'3 0.7
2017-Oct-22 02:48N 40°48' W 073°47'1 2.9
2017-Oct-22 02:24N 40°48' W 073°49'0 0.7
2017-Oct-22 02:00N 40°48' W 073°49'3 6.5
2017-Oct-22 01:27N 40°48' W 073°54'4 8.5
2017-Oct-22 01:01N 40°46' W 073°57'3 6.8
2017-Oct-22 00:30N 40°42' W 073°59'3 6.1
2017-Oct-22 00:00N 40°40' W 074°02'1 1.9
2017-Oct-21 23:31N 40°40' W 074°03'1 2.9
2017-Oct-21 23:01N 40°40' W 074°01'0 0.7
2017-Oct-21 22:31N 40°40' W 074°02'1 2.7
2017-Oct-21 21:59N 40°40' W 074°03'0 0.0
2017-Oct-21 21:30N 40°40' W 074°03'0 0.0
2017-Oct-21 21:00N 40°40' W 074°03'0 0.2
2017-Oct-21 20:30N 40°40' W 074°03'0 0.9
2017-Oct-21 20:00N 40°40' W 074°03'3 6.4
2017-Oct-21 19:30N 40°42' W 073°60'3 6.8
2017-Oct-21 19:00N 40°45' W 073°58'4 8.2
2017-Oct-21 18:31N 40°48' W 073°54'3 6.4
2017-Oct-21 18:00N 40°48' W 073°50'0 0.6
2017-Oct-21 17:30N 40°48' W 073°49'0 0.5
2017-Oct-21 17:00N 40°48' W 073°49'1 1.9
2017-Oct-21 16:30N 40°48' W 073°50'2 3.2
2017-Oct-21 16:00N 40°48' W 073°52'2 3.2
2017-Oct-21 15:29N 40°48' W 073°55'2 4.4
2017-Oct-21 15:00N 40°46' W 073°57'4 3.7
2017-Oct-21 13:59N 40°43' W 073°58'3 5.4
2017-Oct-21 13:30N 40°41' W 074°01'2 3.6
2017-Oct-21 13:00N 40°40' W 074°03'0 0.4
2017-Oct-21 12:30N 40°41' W 074°03'0 0.1
2017-Oct-21 12:00N 40°41' W 074°03'0 0.2
2017-Oct-21 11:30N 40°40' W 074°03'0 0.1
2017-Oct-21 11:00N 40°40' W 074°03'0 0.1
2017-Oct-21 10:30N 40°40' W 074°03'0 0.0
2017-Oct-21 10:00N 40°40' W 074°03'0 0.7
2017-Oct-21 09:30N 40°40' W 074°03'2 4.4
2017-Oct-21 09:00N 40°41' W 074°00'3 5.5
2017-Oct-21 08:30N 40°40' W 074°03'0 0.2
2017-Oct-21 08:00N 40°40' W 074°03'1 1.0
2017-Oct-21 07:30N 40°40' W 074°03'1 1.1
2017-Oct-21 07:00N 40°40' W 074°03'0 0.1
2017-Oct-21 06:30N 40°40' W 074°03'2 3.5
2017-Oct-21 06:00N 40°41' W 074°01'1 1.5
2017-Oct-21 05:30N 40°41' W 074°01'2 4.3
2017-Oct-21 05:01N 40°40' W 074°03'1 1.5
2017-Oct-21 04:30N 40°41' W 074°02'3 5.6
2017-Oct-21 04:00N 40°42' W 073°59'1 2.1
2017-Oct-21 03:30N 40°43' W 073°58'2 4.3
2017-Oct-21 03:00N 40°42' W 074°00'2 4.8
2017-Oct-21 02:30N 40°40' W 074°03'0 0.8
2017-Oct-21 02:00N 40°41' W 074°03'0 0.1
2017-Oct-21 01:30N 40°40' W 074°03'1 2.7
2017-Oct-21 01:00N 40°39' W 074°04'3 7.0
2017-Oct-21 00:30N 40°39' W 074°09'3 6.2
2017-Oct-21 00:00N 40°37' W 074°12'1 0.8
2017-Oct-20 23:10N 40°36' W 074°12'0 0.2
2017-Oct-20 22:47N 40°36' W 074°12'0 1.6
2017-Oct-20 22:30N 40°37' W 074°12'2 4.7
2017-Oct-20 22:00N 40°39' W 074°11'3 5.9
2017-Oct-20 21:30N 40°39' W 074°07'3 5.5
2017-Oct-20 21:00N 40°40' W 074°04'1 1.7
2017-Oct-20 20:31N 40°40' W 074°03'0 0.9
2017-Oct-20 20:00N 40°40' W 074°03'0 0.5
2017-Oct-20 19:30N 40°40' W 074°03'0 0.4
2017-Oct-20 19:00N 40°40' W 074°03'0 0.0
2017-Oct-20 18:30N 40°40' W 074°03'1 1.0
2017-Oct-20 18:00N 40°41' W 074°03'3 6.4
2017-Oct-20 17:30N 40°44' W 074°01'3 6.2
2017-Oct-20 17:00N 40°47' W 074°00'5 5.1
2017-Oct-20 15:59N 40°51' W 073°57'2 4.1
2017-Oct-20 15:30N 40°53' W 073°56'2 3.8
2017-Oct-20 15:00N 40°55' W 073°55'2 3.3
2017-Oct-20 14:30N 40°56' W 073°54'1 0.1
2017-Oct-20 06:16N 40°57' W 073°54'1 4.6
2017-Oct-20 05:58N 40°56' W 073°55'2 4.8
2017-Oct-20 05:28N 40°54' W 073°56'2 4.9
2017-Oct-20 04:59N 40°51' W 073°57'3 5.1
2017-Oct-20 04:30N 40°49' W 073°58'3 5.8
2017-Oct-20 04:00N 40°47' W 073°60'3 5.9
2017-Oct-20 03:30N 40°44' W 074°01'3 6.1
2017-Oct-20 03:00N 40°41' W 074°02'1 2.6
2017-Oct-20 02:30N 40°40' W 074°03'0 0.1
2017-Oct-20 02:00N 40°40' W 074°03'3 5.2
2017-Oct-20 01:30N 40°41' W 074°01'1 2.4
2017-Oct-20 01:00N 40°41' W 074°02'1 2.8
2017-Oct-20 00:30N 40°40' W 074°03'0 0.1
2017-Oct-20 00:00N 40°40' W 074°03'0 0.3
2017-Oct-19 23:30N 40°40' W 074°03'0 0.3
2017-Oct-19 23:00N 40°40' W 074°03'0 0.0
2017-Oct-19 22:30N 40°40' W 074°03'1 1.1
2017-Oct-19 22:00N 40°40' W 074°03'1 1.1
2017-Oct-19 21:30N 40°40' W 074°03'2 3.7
2017-Oct-19 21:00N 40°41' W 074°01'0 0.3
2017-Oct-19 20:30N 40°41' W 074°01'2 3.8
2017-Oct-19 20:00N 40°40' W 074°03'0 0.0
2017-Oct-19 19:30N 40°40' W 074°03'0 0.0
2017-Oct-19 19:00N 40°40' W 074°03'0 0.0
2017-Oct-19 18:30N 40°40' W 074°03'0 0.8
2017-Oct-19 18:00N 40°40' W 074°03'0 0.1
2017-Oct-19 17:31N 40°40' W 074°03'0 0.9
2017-Oct-19 17:00N 40°40' W 074°03'1 1.2
2017-Oct-19 16:30N 40°40' W 074°03'2 4.4
2017-Oct-19 16:00N 40°40' W 073°60'1 1.2
2017-Oct-19 15:30N 40°40' W 074°01'2 3.1
2017-Oct-19 15:01N 40°41' W 074°00'2 3.9
2017-Oct-19 14:30N 40°40' W 074°03'0 0.8
2017-Oct-19 14:00N 40°40' W 074°03'2 4.9
2017-Oct-19 13:31N 40°41' W 074°00'3 5.6
2017-Oct-19 13:00N 40°40' W 074°03'1 1.1
2017-Oct-19 12:30N 40°40' W 074°03'1 1.6
2017-Oct-19 12:00N 40°40' W 074°02'2 3.4
2017-Oct-19 11:30N 40°40' W 073°60'0 0.0
2017-Oct-19 11:00N 40°40' W 073°60'1 2.6
2017-Oct-19 10:30N 40°40' W 074°02'1 2.3
2017-Oct-19 10:00N 40°40' W 074°03'0 0.9
2017-Oct-19 09:30N 40°40' W 074°03'1 2.9
2017-Oct-19 09:00N 40°41' W 074°02'3 5.6
2017-Oct-19 08:30N 40°43' W 073°59'3 6.4
2017-Oct-19 08:00N 40°46' W 073°57'4 7.6
2017-Oct-19 07:30N 40°48' W 073°54'3 6.7
2017-Oct-19 07:00N 40°48' W 073°49'2 3.9
2017-Oct-19 06:30N 40°47' W 073°52'2 3.7
2017-Oct-19 05:57N 40°46' W 073°50'0 0.3
2017-Oct-19 05:29N 40°46' W 073°50'2 4.0
2017-Oct-19 05:00N 40°48' W 073°51'2 3.6
2017-Oct-19 04:29N 40°48' W 073°49'2 3.2
2017-Oct-19 03:59N 40°48' W 073°51'1 1.8
2017-Oct-19 03:22N 40°49' W 073°52'3 7.1
2017-Oct-19 03:01N 40°49' W 073°49'1 1.9
2017-Oct-19 02:30N 40°48' W 073°50'2 4.8
2017-Oct-19 01:59N 40°48' W 073°53'3 5.5
2017-Oct-19 01:29N 40°47' W 073°56'3 6.2
2017-Oct-19 01:01N 40°44' W 073°58'3 6.1
2017-Oct-19 00:30N 40°41' W 074°01'3 5.4
2017-Oct-19 00:00N 40°40' W 074°03'0 0.1
2017-Oct-18 23:30N 40°40' W 074°03'3 5.2
2017-Oct-18 23:00N 40°41' W 074°01'1 2.1
2017-Oct-18 22:30N 40°41' W 074°02'2 3.1
2017-Oct-18 22:00N 40°40' W 074°03'1 1.2
2017-Oct-18 21:30N 40°40' W 074°03'0 0.8
2017-Oct-18 21:00N 40°41' W 074°03'2 4.4
2017-Oct-18 20:30N 40°43' W 074°01'3 5.6
2017-Oct-18 20:00N 40°45' W 074°01'3 6.7
2017-Oct-18 19:30N 40°48' W 073°59'4 7.0
2017-Oct-18 18:59N 40°52' W 073°57'3 6.9
2017-Oct-18 18:30N 40°55' W 073°55'3 0.3
2017-Oct-18 09:02N 40°58' W 073°54'0 4.9
2017-Oct-18 08:58N 40°57' W 073°54'2 4.8
2017-Oct-18 08:30N 40°55' W 073°55'2 4.2
2017-Oct-18 08:00N 40°53' W 073°56'2 3.8
2017-Oct-18 07:30N 40°51' W 073°57'2 3.4
2017-Oct-18 07:00N 40°50' W 073°58'2 3.0
2017-Oct-18 06:29N 40°48' W 073°58'1 2.9
2017-Oct-18 06:00N 40°47' W 073°59'2 3.2
2017-Oct-18 05:30N 40°46' W 074°00'2 3.4
2017-Oct-18 05:00N 40°44' W 074°01'2 3.8
2017-Oct-18 04:30N 40°42' W 074°02'2 4.1
2017-Oct-18 04:00N 40°41' W 074°03'0 0.7
2017-Oct-18 03:30N 40°40' W 074°03'2 4.1
2017-Oct-18 03:00N 40°40' W 074°00'1 2.5
2017-Oct-18 02:30N 40°40' W 074°02'1 1.6
2017-Oct-18 02:00N 40°40' W 074°03'0 0.3
2017-Oct-18 01:30N 40°41' W 074°03'3 5.2
2017-Oct-18 01:00N 40°39' W 074°06'4 7.2
2017-Oct-18 00:29N 40°39' W 074°11'3 6.0
2017-Oct-18 00:00N 40°36' W 074°12'0 0.5
2017-Oct-17 23:30N 40°36' W 074°12'0 0.0
2017-Oct-17 22:51N 40°36' W 074°12'0 0.1
2017-Oct-17 22:14N 40°36' W 074°12'0 1.3
2017-Oct-17 21:59N 40°36' W 074°12'3 5.3
2017-Oct-17 21:30N 40°39' W 074°11'3 6.8
2017-Oct-17 21:00N 40°39' W 074°06'3 5.8
2017-Oct-17 20:30N 40°40' W 074°03'1 1.4
2017-Oct-17 20:00N 40°40' W 074°02'0 0.6
2017-Oct-17 19:30N 40°40' W 074°02'0 0.9
2017-Oct-17 19:00N 40°40' W 074°02'2 3.7
2017-Oct-17 18:30N 40°41' W 074°00'3 5.4
2017-Oct-17 18:00N 40°40' W 074°03'0 0.1
2017-Oct-17 17:30N 40°40' W 074°03'0 0.3
2017-Oct-17 17:00N 40°40' W 074°03'0 0.6
2017-Oct-17 16:30N 40°40' W 074°03'4 7.3
2017-Oct-17 16:00N 40°42' W 073°59'4 8.0
2017-Oct-17 15:30N 40°46' W 073°57'6 4.1
2017-Oct-17 13:59N 40°48' W 073°49'2 4.0
2017-Oct-17 13:29N 40°47' W 073°52'2 3.3
2017-Oct-17 12:55N 40°46' W 073°50'2 4.1
2017-Oct-17 12:30N 40°47' W 073°52'2 4.9
2017-Oct-17 12:00N 40°48' W 073°49'0 0.8
2017-Oct-17 11:30N 40°48' W 073°49'0 0.0
2017-Oct-17 11:00N 40°48' W 073°50'0 0.0
2017-Oct-17 10:29N 40°48' W 073°49'0 0.0
2017-Oct-17 10:00N 40°48' W 073°49'0 0.0
2017-Oct-17 09:30N 40°48' W 073°50'0 0.2
2017-Oct-17 08:58N 40°48' W 073°49'0 0.1
2017-Oct-17 08:30N 40°48' W 073°49'3 5.6
2017-Oct-17 08:00N 40°46' W 073°51'0 0.7
2017-Oct-17 07:25N 40°46' W 073°50'2 4.3
2017-Oct-17 07:00N 40°47' W 073°52'2 4.5
2017-Oct-17 06:30N 40°49' W 073°49'2 3.9
2017-Oct-17 06:00N 40°48' W 073°51'2 2.9
2017-Oct-17 05:19N 40°46' W 073°50'2 5.4
2017-Oct-17 04:59N 40°47' W 073°52'2 4.4
2017-Oct-17 04:30N 40°48' W 073°49'3 0.2
2017-Oct-16 13:48N 40°50' W 073°46'2 7.1
2017-Oct-16 13:28N 40°48' W 073°47'2 3.1
2017-Oct-16 12:57N 40°48' W 073°49'2 2.9
2017-Oct-16 12:11N 40°49' W 073°52'1 6.3
2017-Oct-16 11:59N 40°48' W 073°51'2 1.1
2017-Oct-16 10:18N 40°48' W 073°49'0 0.0
2017-Oct-16 09:10N 40°48' W 073°49'0 0.6
2017-Oct-16 08:53N 40°48' W 073°48'1 3.7
2017-Oct-16 08:30N 40°48' W 073°50'3 6.2
2017-Oct-16 07:59N 40°48' W 073°55'4 7.6
2017-Oct-16 07:30N 40°45' W 073°58'3 5.8
2017-Oct-16 07:00N 40°42' W 073°59'3 5.4
2017-Oct-16 06:30N 40°41' W 074°02'1 2.7
2017-Oct-16 06:00N 40°40' W 074°03'0 0.0
2017-Oct-16 05:30N 40°40' W 074°03'0 0.0
2017-Oct-16 05:00N 40°40' W 074°03'0 0.0
2017-Oct-16 04:30N 40°40' W 074°03'0 0.0
2017-Oct-16 04:00N 40°40' W 074°03'0 0.0
2017-Oct-16 03:30N 40°40' W 074°03'0 0.0
2017-Oct-16 03:00N 40°40' W 074°03'3 5.7
2017-Oct-16 02:31N 40°41' W 074°00'2 3.4
2017-Oct-16 02:00N 40°40' W 074°01'1 2.4
2017-Oct-16 01:30N 40°40' W 073°60'2 3.7
2017-Oct-16 01:00N 40°40' W 074°02'0 0.5
2017-Oct-16 00:30N 40°41' W 074°02'2 3.3
2017-Oct-16 00:01N 40°40' W 073°60'1 1.4
2017-Oct-15 23:30N 40°40' W 074°01'0 0.0
2017-Oct-15 23:00N 40°40' W 074°01'0 0.0
2017-Oct-15 22:30N 40°40' W 074°01'0 0.0
2017-Oct-15 22:00N 40°40' W 074°01'0 0.0
2017-Oct-15 21:30N 40°40' W 074°01'0 0.0
2017-Oct-15 21:00N 40°40' W 074°01'0 0.0
2017-Oct-15 20:30N 40°40' W 074°01'0 0.0
2017-Oct-15 20:00N 40°40' W 074°01'0 0.0
2017-Oct-15 19:30N 40°40' W 074°01'0 0.0
2017-Oct-15 19:00N 40°40' W 074°01'0 0.0
2017-Oct-15 18:30N 40°40' W 074°01'0 0.0
2017-Oct-15 18:00N 40°40' W 074°01'0 0.0
2017-Oct-15 17:30N 40°40' W 074°01'0 0.0
2017-Oct-15 17:00N 40°40' W 074°01'0 0.0
2017-Oct-15 16:30N 40°40' W 074°01'0 0.0
2017-Oct-15 16:00N 40°40' W 074°01'0 0.0
2017-Oct-15 15:30N 40°40' W 074°01'0 0.0
2017-Oct-15 15:00N 40°40' W 074°01'0 0.0
2017-Oct-15 14:00N 40°40' W 074°01'0 0.0
2017-Oct-15 13:30N 40°40' W 074°01'0 0.0
2017-Oct-15 13:00N 40°40' W 074°01'0 0.0
2017-Oct-15 12:30N 40°40' W 074°01'0 0.0
2017-Oct-15 12:00N 40°40' W 074°01'0 0.0
2017-Oct-15 11:30N 40°40' W 074°01'0 0.0
2017-Oct-15 11:00N 40°40' W 074°01'0 0.0
2017-Oct-15 10:30N 40°40' W 074°01'0 0.0
2017-Oct-15 10:00N 40°40' W 074°01'0 0.0
2017-Oct-15 09:30N 40°40' W 074°01'0 0.0
2017-Oct-15 09:00N 40°40' W 074°01'0 0.0
2017-Oct-15 08:30N 40°40' W 074°01'0 0.0
2017-Oct-15 08:00N 40°40' W 074°01'0 0.0
2017-Oct-15 07:30N 40°40' W 074°01'0 0.0
2017-Oct-15 07:00N 40°40' W 074°01'0 0.0
2017-Oct-15 06:30N 40°40' W 074°01'0 0.0
2017-Oct-15 06:00N 40°40' W 074°01'0 0.0
2017-Oct-15 05:30N 40°40' W 074°01'0 0.0
2017-Oct-15 05:00N 40°40' W 074°01'0 0.0
2017-Oct-15 04:30N 40°40' W 074°01'0 0.0
2017-Oct-15 04:00N 40°40' W 074°01'0 0.0
2017-Oct-15 03:30N 40°40' W 074°01'0 0.0
2017-Oct-15 03:00N 40°40' W 074°01'0 0.0
2017-Oct-15 02:30N 40°40' W 074°01'0 0.0
2017-Oct-15 02:00N 40°40' W 074°01'0 0.0
2017-Oct-15 01:30N 40°40' W 074°01'0 0.0
2017-Oct-15 01:00N 40°40' W 074°01'0 0.0
2017-Oct-15 00:30N 40°40' W 074°01'0 0.0
2017-Oct-15 00:00N 40°40' W 074°01'0 0.0
2017-Oct-14 23:30N 40°40' W 074°01'0 0.0
2017-Oct-14 23:00N 40°40' W 074°01'0 0.1
2017-Oct-14 22:30N 40°40' W 074°01'0 0.0
2017-Oct-14 22:00N 40°40' W 074°01'0 0.0
2017-Oct-14 21:30N 40°40' W 074°01'0 0.0
2017-Oct-14 21:00N 40°40' W 074°01'0 0.0
2017-Oct-14 20:30N 40°40' W 074°01'0 0.0
2017-Oct-14 20:00N 40°40' W 074°01'0 0.0
2017-Oct-14 19:30N 40°40' W 074°01'0 0.0
2017-Oct-14 19:00N 40°40' W 074°01'0 0.0
2017-Oct-14 18:30N 40°40' W 074°01'2 3.8
2017-Oct-14 18:00N 40°40' W 074°03'2 4.0
2017-Oct-14 17:30N 40°41' W 074°01'0 0.7
2017-Oct-14 17:00N 40°41' W 074°01'1 1.6
2017-Oct-14 16:30N 40°40' W 074°01'4 7.1
2017-Oct-14 16:00N 40°44' W 074°01'4 8.8
2017-Oct-14 15:30N 40°48' W 073°59'5 9.1
2017-Oct-14 15:00N 40°52' W 073°56'5 8.4
2017-Oct-14 14:28N 40°56' W 073°55'2 0.3
2017-Oct-14 08:41N 40°55' W 073°55'1 5.2
2017-Oct-14 08:28N 40°54' W 073°56'3 5.3
2017-Oct-14 08:00N 40°51' W 073°57'3 5.2
2017-Oct-14 07:30N 40°49' W 073°58'2 4.8
2017-Oct-14 07:00N 40°47' W 073°60'2 4.3
2017-Oct-14 06:30N 40°45' W 074°01'2 3.8
2017-Oct-14 06:00N 40°43' W 074°01'2 3.4
2017-Oct-14 05:30N 40°42' W 074°02'2 3.0
2017-Oct-14 05:01N 40°40' W 074°03'0 0.9
2017-Oct-14 04:30N 40°40' W 074°03'0 0.0
2017-Oct-14 04:00N 40°40' W 074°03'0 0.0
2017-Oct-14 03:30N 40°40' W 074°03'0 0.0
2017-Oct-14 03:00N 40°40' W 074°03'0 0.0
2017-Oct-14 02:30N 40°40' W 074°03'0 0.1
2017-Oct-14 02:00N 40°40' W 074°03'0 0.0
2017-Oct-14 01:30N 40°40' W 074°03'0 0.0
2017-Oct-14 01:00N 40°40' W 074°03'0 0.0
2017-Oct-14 00:30N 40°40' W 074°03'0 0.9
2017-Oct-14 00:00N 40°40' W 074°03'0 0.4
2017-Oct-13 23:30N 40°40' W 074°03'0 0.4
2017-Oct-13 23:00N 40°40' W 074°03'2 3.6
2017-Oct-13 22:30N 40°41' W 074°01'3 6.9
2017-Oct-13 22:00N 40°43' W 073°58'3 6.5
2017-Oct-13 21:30N 40°46' W 073°57'2 4.1
2017-Oct-13 21:00N 40°48' W 073°55'2 4.4
2017-Oct-13 20:30N 40°48' W 073°52'3 3.3
2017-Oct-13 19:34N 40°48' W 073°48'0 4.5
2017-Oct-13 19:30N 40°48' W 073°47'2 0.2
2017-Oct-13 10:22N 40°50' W 073°47'2 3.9
2017-Oct-13 09:53N 40°48' W 073°47'2 3.7
2017-Oct-13 09:27N 40°48' W 073°49'0 0.6
2017-Oct-13 09:00N 40°48' W 073°49'0 0.2
2017-Oct-13 08:24N 40°49' W 073°49'1 3.3
2017-Oct-13 08:00N 40°48' W 073°51'3 5.4
2017-Oct-13 07:30N 40°48' W 073°54'4 7.3
2017-Oct-13 07:00N 40°45' W 073°57'3 6.6
2017-Oct-13 06:30N 40°42' W 073°59'3 6.2
2017-Oct-13 06:00N 40°40' W 074°02'1 2.2
2017-Oct-13 05:30N 40°40' W 074°03'0 0.0
2017-Oct-13 05:00N 40°40' W 074°03'0 0.1
2017-Oct-13 04:30N 40°40' W 074°03'1 1.1
2017-Oct-13 04:00N 40°40' W 074°03'2 4.6
2017-Oct-13 03:30N 40°40' W 074°00'0 0.5
2017-Oct-13 02:59N 40°40' W 073°60'1 2.1
2017-Oct-13 02:30N 40°40' W 074°01'2 3.2
2017-Oct-13 01:59N 40°41' W 074°00'2 3.5
2017-Oct-13 01:30N 40°40' W 074°02'1 2.1
2017-Oct-13 01:00N 40°40' W 074°03'3 4.6
2017-Oct-13 00:23N 40°41' W 074°00'2 5.6
2017-Oct-13 00:00N 40°40' W 074°03'1 1.0
2017-Oct-12 23:30N 40°40' W 074°03'1 2.0
2017-Oct-12 23:00N 40°40' W 074°04'4 8.6
2017-Oct-12 22:30N 40°39' W 074°10'3 6.2
2017-Oct-12 21:59N 40°36' W 074°12'0 0.5
2017-Oct-12 21:29N 40°36' W 074°12'0 0.1
2017-Oct-12 21:00N 40°36' W 074°12'1 1.8
2017-Oct-12 20:30N 40°37' W 074°12'2 4.2
2017-Oct-12 20:01N 40°39' W 074°11'2 4.6
2017-Oct-12 19:30N 40°39' W 074°08'2 5.0
2017-Oct-12 19:00N 40°39' W 074°04'  

Dump ship's entire track history